sensor_id;sensor_type;location;lat;lon;timestamp;P1;durP1;ratioP1;P2;durP2;ratioP2
41480;SDS011;27217;51.220;5.308;2023-04-02T00:05:15;0.10;;;0.10;;
41480;SDS011;27217;51.220;5.308;2023-04-02T00:07:54;0.70;;;0.68;;
41480;SDS011;27217;51.220;5.308;2023-04-02T00:11:05;0.10;;;0.10;;
41480;SDS011;27217;51.220;5.308;2023-04-02T00:14:35;0.30;;;0.30;;
41480;SDS011;27217;51.220;5.308;2023-04-02T00:17:21;0.75;;;0.75;;
41480;SDS011;27217;51.220;5.308;2023-04-02T00:20:26;0.22;;;0.22;;
41480;SDS011;27217;51.220;5.308;2023-04-02T00:23:31;0.30;;;0.30;;
41480;SDS011;27217;51.220;5.308;2023-04-02T00:26:43;0.68;;;0.68;;
41480;SDS011;27217;51.220;5.308;2023-04-02T00:29:49;0.20;;;0.20;;
41480;SDS011;27217;51.220;5.308;2023-04-02T00:32:54;0.00;;;0.00;;
41480;SDS011;27217;51.220;5.308;2023-04-02T00:36:00;0.00;;;0.00;;
41480;SDS011;27217;51.220;5.308;2023-04-02T00:39:06;0.30;;;0.30;;
41480;SDS011;27217;51.220;5.308;2023-04-02T00:42:13;1.52;;;0.82;;
41480;SDS011;27217;51.220;5.308;2023-04-02T00:45:23;0.73;;;0.73;;
41480;SDS011;27217;51.220;5.308;2023-04-02T00:50:57;0.43;;;0.43;;
41480;SDS011;27217;51.220;5.308;2023-04-02T00:54:09;0.03;;;0.03;;
41480;SDS011;27217;51.220;5.308;2023-04-02T00:57:19;0.65;;;0.38;;
41480;SDS011;27217;51.220;5.308;2023-04-02T01:00:29;4.90;;;1.08;;
41480;SDS011;27217;51.220;5.308;2023-04-02T01:03:35;0.10;;;0.10;;
41480;SDS011;27217;51.220;5.308;2023-04-02T01:06:41;0.00;;;0.00;;
41480;SDS011;27217;51.220;5.308;2023-04-02T01:12:42;0.08;;;0.08;;
41480;SDS011;27217;51.220;5.308;2023-04-02T01:15:29;0.00;;;0.00;;
41480;SDS011;27217;51.220;5.308;2023-04-02T01:24:06;0.10;;;0.10;;
41480;SDS011;27217;51.220;5.308;2023-04-02T01:27:19;0.77;;;0.77;;
41480;SDS011;27217;51.220;5.308;2023-04-02T01:30:23;0.00;;;0.00;;
41480;SDS011;27217;51.220;5.308;2023-04-02T01:33:29;2.72;;;0.65;;
41480;SDS011;27217;51.220;5.308;2023-04-02T01:36:36;0.00;;;0.00;;
41480;SDS011;27217;51.220;5.308;2023-04-02T01:39:50;0.15;;;0.15;;
41480;SDS011;27217;51.220;5.308;2023-04-02T01:43:01;0.10;;;0.10;;
41480;SDS011;27217;51.220;5.308;2023-04-02T01:46:29;0.00;;;0.00;;
41480;SDS011;27217;51.220;5.308;2023-04-02T01:49:33;0.10;;;0.10;;
41480;SDS011;27217;51.220;5.308;2023-04-02T01:52:42;0.00;;;0.00;;
41480;SDS011;27217;51.220;5.308;2023-04-02T01:55:51;0.70;;;0.68;;
41480;SDS011;27217;51.220;5.308;2023-04-02T01:58:52;0.30;;;0.30;;
41480;SDS011;27217;51.220;5.308;2023-04-02T02:02:00;0.22;;;0.22;;
41480;SDS011;27217;51.220;5.308;2023-04-02T02:05:04;0.00;;;0.00;;
41480;SDS011;27217;51.220;5.308;2023-04-02T02:08:33;1.48;;;1.23;;
41480;SDS011;27217;51.220;5.308;2023-04-02T02:11:23;0.08;;;0.08;;
41480;SDS011;27217;51.220;5.308;2023-04-02T02:14:28;0.32;;;0.32;;
41480;SDS011;27217;51.220;5.308;2023-04-02T02:17:34;0.00;;;0.00;;
41480;SDS011;27217;51.220;5.308;2023-04-02T02:20:40;0.00;;;0.00;;
41480;SDS011;27217;51.220;5.308;2023-04-02T02:23:45;0.17;;;0.17;;
41480;SDS011;27217;51.220;5.308;2023-04-02T02:29:30;0.00;;;0.00;;
41480;SDS011;27217;51.220;5.308;2023-04-02T02:32:40;0.08;;;0.08;;
41480;SDS011;27217;51.220;5.308;2023-04-02T02:36:03;0.10;;;0.10;;
41480;SDS011;27217;51.220;5.308;2023-04-02T02:39:56;5.05;;;1.02;;
41480;SDS011;27217;51.220;5.308;2023-04-02T02:42:26;0.15;;;0.15;;
41480;SDS011;27217;51.220;5.308;2023-04-02T02:45:34;0.17;;;0.17;;
41480;SDS011;27217;51.220;5.308;2023-04-02T02:48:39;0.22;;;0.22;;
41480;SDS011;27217;51.220;5.308;2023-04-02T02:51:57;0.57;;;0.57;;
41480;SDS011;27217;51.220;5.308;2023-04-02T02:55:12;0.30;;;0.30;;
41480;SDS011;27217;51.220;5.308;2023-04-02T02:58:18;0.00;;;0.00;;
41480;SDS011;27217;51.220;5.308;2023-04-02T03:01:24;0.65;;;0.65;;
41480;SDS011;27217;51.220;5.308;2023-04-02T03:04:31;2.08;;;0.93;;
41480;SDS011;27217;51.220;5.308;2023-04-02T03:07:36;0.17;;;0.17;;
41480;SDS011;27217;51.220;5.308;2023-04-02T03:13:34;0.00;;;0.00;;
41480;SDS011;27217;51.220;5.308;2023-04-02T03:16:37;0.10;;;0.10;;
41480;SDS011;27217;51.220;5.308;2023-04-02T03:19:50;0.00;;;0.00;;
41480;SDS011;27217;51.220;5.308;2023-04-02T03:22:37;0.00;;;0.00;;
41480;SDS011;27217;51.220;5.308;2023-04-02T03:25:47;0.17;;;0.17;;
41480;SDS011;27217;51.220;5.308;2023-04-02T03:34:51;0.30;;;0.30;;
41480;SDS011;27217;51.220;5.308;2023-04-02T03:37:43;0.15;;;0.15;;
41480;SDS011;27217;51.220;5.308;2023-04-02T03:40:59;0.00;;;0.00;;
41480;SDS011;27217;51.220;5.308;2023-04-02T03:44:01;0.75;;;0.75;;
41480;SDS011;27217;51.220;5.308;2023-04-02T03:47:19;0.00;;;0.00;;
41480;SDS011;27217;51.220;5.308;2023-04-02T03:50:07;0.03;;;0.03;;
41480;SDS011;27217;51.220;5.308;2023-04-02T03:53:15;0.75;;;0.75;;
41480;SDS011;27217;51.220;5.308;2023-04-02T04:04:41;0.00;;;0.00;;
41480;SDS011;27217;51.220;5.308;2023-04-02T04:07:48;9.75;;;2.63;;
41480;SDS011;27217;51.220;5.308;2023-04-02T04:10:55;0.00;;;0.00;;
41480;SDS011;27217;51.220;5.308;2023-04-02T04:14:04;0.10;;;0.10;;
41480;SDS011;27217;51.220;5.308;2023-04-02T04:16:52;0.00;;;0.00;;
41480;SDS011;27217;51.220;5.308;2023-04-02T04:20:00;0.47;;;0.47;;
41480;SDS011;27217;51.220;5.308;2023-04-02T04:23:17;0.22;;;0.22;;
41480;SDS011;27217;51.220;5.308;2023-04-02T04:26:23;0.52;;;0.52;;
41480;SDS011;27217;51.220;5.308;2023-04-02T04:29:38;0.40;;;0.40;;
41480;SDS011;27217;51.220;5.308;2023-04-02T04:32:45;2.72;;;0.73;;
41480;SDS011;27217;51.220;5.308;2023-04-02T04:35:56;0.38;;;0.38;;
41480;SDS011;27217;51.220;5.308;2023-04-02T04:39:19;0.00;;;0.00;;
41480;SDS011;27217;51.220;5.308;2023-04-02T04:42:28;0.20;;;0.20;;
41480;SDS011;27217;51.220;5.308;2023-04-02T04:51:16;0.00;;;0.00;;
41480;SDS011;27217;51.220;5.308;2023-04-02T04:54:10;0.00;;;0.00;;
41480;SDS011;27217;51.220;5.308;2023-04-02T04:57:19;0.00;;;0.00;;
41480;SDS011;27217;51.220;5.308;2023-04-02T05:00:21;18.98;;;10.00;;
41480;SDS011;27217;51.220;5.308;2023-04-02T05:09:31;18.50;;;10.45;;
41480;SDS011;27217;51.220;5.308;2023-04-02T05:12:35;23.45;;;13.60;;
41480;SDS011;27217;51.220;5.308;2023-04-02T05:15:54;17.60;;;9.80;;
41480;SDS011;27217;51.220;5.308;2023-04-02T05:18:58;21.45;;;11.85;;
41480;SDS011;27217;51.220;5.308;2023-04-02T05:27:47;26.20;;;13.52;;
41480;SDS011;27217;51.220;5.308;2023-04-02T05:30:51;21.10;;;12.90;;
41480;SDS011;27217;51.220;5.308;2023-04-02T05:33:59;31.02;;;13.43;;
41480;SDS011;27217;51.220;5.308;2023-04-02T05:37:18;20.48;;;10.70;;
41480;SDS011;27217;51.220;5.308;2023-04-02T05:40:41;28.45;;;12.60;;
41480;SDS011;27217;51.220;5.308;2023-04-02T05:43:33;19.77;;;11.50;;
41480;SDS011;27217;51.220;5.308;2023-04-02T05:46:46;19.45;;;9.98;;
41480;SDS011;27217;51.220;5.308;2023-04-02T05:52:33;22.98;;;11.95;;
41480;SDS011;27217;51.220;5.308;2023-04-02T05:58:30;23.10;;;13.30;;
41480;SDS011;27217;51.220;5.308;2023-04-02T06:04:14;28.25;;;13.77;;
41480;SDS011;27217;51.220;5.308;2023-04-02T06:07:03;26.55;;;13.02;;
41480;SDS011;27217;51.220;5.308;2023-04-02T06:10:10;28.15;;;12.93;;
41480;SDS011;27217;51.220;5.308;2023-04-02T06:13:33;28.55;;;13.32;;
41480;SDS011;27217;51.220;5.308;2023-04-02T06:16:38;24.10;;;12.43;;
41480;SDS011;27217;51.220;5.308;2023-04-02T06:19:44;27.05;;;13.35;;
41480;SDS011;27217;51.220;5.308;2023-04-02T06:29:20;24.67;;;11.45;;
41480;SDS011;27217;51.220;5.308;2023-04-02T06:32:23;21.88;;;11.43;;
41480;SDS011;27217;51.220;5.308;2023-04-02T06:35:29;19.88;;;10.68;;
41480;SDS011;27217;51.220;5.308;2023-04-02T06:38:36;19.58;;;9.48;;
41480;SDS011;27217;51.220;5.308;2023-04-02T06:41:41;22.58;;;10.65;;
41480;SDS011;27217;51.220;5.308;2023-04-02T06:44:50;24.40;;;9.73;;
41480;SDS011;27217;51.220;5.308;2023-04-02T06:47:59;23.92;;;10.73;;
41480;SDS011;27217;51.220;5.308;2023-04-02T06:51:08;17.80;;;10.07;;
41480;SDS011;27217;51.220;5.308;2023-04-02T06:54:14;25.63;;;9.05;;
41480;SDS011;27217;51.220;5.308;2023-04-02T06:57:19;19.05;;;9.82;;
41480;SDS011;27217;51.220;5.308;2023-04-02T07:00:35;16.70;;;9.68;;
41480;SDS011;27217;51.220;5.308;2023-04-02T07:03:42;17.60;;;9.88;;
41480;SDS011;27217;51.220;5.308;2023-04-02T07:06:47;22.77;;;8.77;;
41480;SDS011;27217;51.220;5.308;2023-04-02T07:12:39;18.95;;;7.95;;
41480;SDS011;27217;51.220;5.308;2023-04-02T07:15:46;16.27;;;8.50;;
41480;SDS011;27217;51.220;5.308;2023-04-02T07:18:51;16.85;;;7.78;;
41480;SDS011;27217;51.220;5.308;2023-04-02T07:21:56;14.38;;;7.00;;
41480;SDS011;27217;51.220;5.308;2023-04-02T07:25:01;14.25;;;6.40;;
41480;SDS011;27217;51.220;5.308;2023-04-02T07:28:07;10.18;;;6.55;;
41480;SDS011;27217;51.220;5.308;2023-04-02T07:31:16;11.82;;;6.30;;
41480;SDS011;27217;51.220;5.308;2023-04-02T07:34:21;9.18;;;6.03;;
41480;SDS011;27217;51.220;5.308;2023-04-02T07:37:27;10.48;;;6.18;;
41480;SDS011;27217;51.220;5.308;2023-04-02T07:40:32;11.80;;;6.80;;
41480;SDS011;27217;51.220;5.308;2023-04-02T07:43:38;11.15;;;6.40;;
41480;SDS011;27217;51.220;5.308;2023-04-02T07:46:44;16.55;;;6.20;;
41480;SDS011;27217;51.220;5.308;2023-04-02T07:49:50;12.35;;;7.00;;
41480;SDS011;27217;51.220;5.308;2023-04-02T07:52:56;10.05;;;5.90;;
41480;SDS011;27217;51.220;5.308;2023-04-02T07:56:19;9.18;;;5.43;;
41480;SDS011;27217;51.220;5.308;2023-04-02T07:59:25;9.48;;;5.90;;
41480;SDS011;27217;51.220;5.308;2023-04-02T08:02:31;12.75;;;5.90;;
41480;SDS011;27217;51.220;5.308;2023-04-02T08:05:37;10.43;;;6.35;;
41480;SDS011;27217;51.220;5.308;2023-04-02T08:08:42;15.18;;;6.53;;
41480;SDS011;27217;51.220;5.308;2023-04-02T08:11:48;13.32;;;6.95;;
41480;SDS011;27217;51.220;5.308;2023-04-02T08:14:53;12.27;;;6.20;;
41480;SDS011;27217;51.220;5.308;2023-04-02T08:17:59;12.48;;;6.75;;
41480;SDS011;27217;51.220;5.308;2023-04-02T08:21:11;8.27;;;5.18;;
41480;SDS011;27217;51.220;5.308;2023-04-02T08:24:18;12.13;;;5.18;;
41480;SDS011;27217;51.220;5.308;2023-04-02T08:27:26;11.95;;;5.07;;
41480;SDS011;27217;51.220;5.308;2023-04-02T08:30:32;10.98;;;5.13;;
41480;SDS011;27217;51.220;5.308;2023-04-02T08:33:38;15.75;;;7.72;;
41480;SDS011;27217;51.220;5.308;2023-04-02T08:36:44;14.00;;;6.03;;
41480;SDS011;27217;51.220;5.308;2023-04-02T08:39:49;11.82;;;5.50;;
41480;SDS011;27217;51.220;5.308;2023-04-02T08:48:59;19.05;;;6.57;;
41480;SDS011;27217;51.220;5.308;2023-04-02T08:52:03;10.52;;;4.43;;
41480;SDS011;27217;51.220;5.308;2023-04-02T08:55:32;7.65;;;4.63;;
41480;SDS011;27217;51.220;5.308;2023-04-02T08:58:42;12.02;;;6.38;;
41480;SDS011;27217;51.220;5.308;2023-04-02T09:01:48;10.13;;;4.60;;
41480;SDS011;27217;51.220;5.308;2023-04-02T09:04:45;12.48;;;5.32;;
41480;SDS011;27217;51.220;5.308;2023-04-02T09:07:50;14.02;;;4.55;;
41480;SDS011;27217;51.220;5.308;2023-04-02T09:10:44;12.88;;;4.72;;
41480;SDS011;27217;51.220;5.308;2023-04-02T09:13:55;8.10;;;3.55;;
41480;SDS011;27217;51.220;5.308;2023-04-02T09:17:01;4.85;;;3.40;;
41480;SDS011;27217;51.220;5.308;2023-04-02T09:22:57;8.32;;;3.63;;
41480;SDS011;27217;51.220;5.308;2023-04-02T09:26:10;9.60;;;3.20;;
41480;SDS011;27217;51.220;5.308;2023-04-02T09:31:43;6.32;;;3.65;;
41480;SDS011;27217;51.220;5.308;2023-04-02T09:35:03;7.45;;;2.65;;
41480;SDS011;27217;51.220;5.308;2023-04-02T09:40:45;7.00;;;2.70;;
41480;SDS011;27217;51.220;5.308;2023-04-02T09:44:09;4.07;;;2.70;;
41480;SDS011;27217;51.220;5.308;2023-04-02T09:47:22;10.70;;;3.00;;
41480;SDS011;27217;51.220;5.308;2023-04-02T09:50:29;6.18;;;2.63;;
41480;SDS011;27217;51.220;5.308;2023-04-02T09:53:34;8.30;;;2.72;;
41480;SDS011;27217;51.220;5.308;2023-04-02T09:56:35;5.80;;;3.17;;
41480;SDS011;27217;51.220;5.308;2023-04-02T09:59:37;6.28;;;2.60;;
41480;SDS011;27217;51.220;5.308;2023-04-02T10:06:12;8.70;;;2.80;;
41480;SDS011;27217;51.220;5.308;2023-04-02T10:08:56;5.63;;;2.58;;
41480;SDS011;27217;51.220;5.308;2023-04-02T10:12:09;7.40;;;3.25;;
41480;SDS011;27217;51.220;5.308;2023-04-02T10:15:16;7.10;;;2.72;;
41480;SDS011;27217;51.220;5.308;2023-04-02T10:21:44;7.35;;;2.20;;
41480;SDS011;27217;51.220;5.308;2023-04-02T10:24:56;5.07;;;2.13;;
41480;SDS011;27217;51.220;5.308;2023-04-02T10:31:21;6.55;;;2.55;;
41480;SDS011;27217;51.220;5.308;2023-04-02T10:34:15;5.32;;;1.85;;
41480;SDS011;27217;51.220;5.308;2023-04-02T10:39:58;5.15;;;2.00;;
41480;SDS011;27217;51.220;5.308;2023-04-02T10:48:10;5.28;;;2.70;;
41480;SDS011;27217;51.220;5.308;2023-04-02T10:51:12;5.88;;;2.15;;
41480;SDS011;27217;51.220;5.308;2023-04-02T10:57:11;6.47;;;3.10;;
41480;SDS011;27217;51.220;5.308;2023-04-02T11:00:26;7.25;;;1.98;;
41480;SDS011;27217;51.220;5.308;2023-04-02T11:03:36;3.28;;;2.10;;
41480;SDS011;27217;51.220;5.308;2023-04-02T11:06:55;5.25;;;1.75;;
41480;SDS011;27217;51.220;5.308;2023-04-02T11:09:58;3.22;;;1.45;;
41480;SDS011;27217;51.220;5.308;2023-04-02T11:13:10;8.20;;;2.25;;
41480;SDS011;27217;51.220;5.308;2023-04-02T11:16:10;3.10;;;1.90;;
41480;SDS011;27217;51.220;5.308;2023-04-02T11:21:48;5.32;;;2.13;;
41480;SDS011;27217;51.220;5.308;2023-04-02T11:25:12;5.10;;;2.20;;
41480;SDS011;27217;51.220;5.308;2023-04-02T11:28:29;3.47;;;1.77;;
41480;SDS011;27217;51.220;5.308;2023-04-02T11:31:35;7.18;;;2.03;;
41480;SDS011;27217;51.220;5.308;2023-04-02T11:34:59;9.75;;;2.30;;
41480;SDS011;27217;51.220;5.308;2023-04-02T11:40:45;5.88;;;1.90;;
41480;SDS011;27217;51.220;5.308;2023-04-02T11:43:51;5.75;;;2.30;;
41480;SDS011;27217;51.220;5.308;2023-04-02T11:47:15;7.40;;;2.90;;
41480;SDS011;27217;51.220;5.308;2023-04-02T11:50:28;5.22;;;2.47;;
41480;SDS011;27217;51.220;5.308;2023-04-02T11:53:33;4.05;;;2.03;;
41480;SDS011;27217;51.220;5.308;2023-04-02T11:59:35;5.40;;;2.33;;
41480;SDS011;27217;51.220;5.308;2023-04-02T12:02:31;3.75;;;1.70;;
41480;SDS011;27217;51.220;5.308;2023-04-02T12:05:34;3.45;;;1.83;;
41480;SDS011;27217;51.220;5.308;2023-04-02T12:11:35;3.33;;;1.80;;
41480;SDS011;27217;51.220;5.308;2023-04-02T12:14:42;5.13;;;1.88;;
41480;SDS011;27217;51.220;5.308;2023-04-02T12:17:46;6.72;;;2.58;;
41480;SDS011;27217;51.220;5.308;2023-04-02T12:20:55;6.65;;;1.77;;
41480;SDS011;27217;51.220;5.308;2023-04-02T12:24:00;5.72;;;2.05;;
41480;SDS011;27217;51.220;5.308;2023-04-02T12:27:10;4.88;;;1.70;;
41480;SDS011;27217;51.220;5.308;2023-04-02T12:30:20;2.65;;;1.60;;
41480;SDS011;27217;51.220;5.308;2023-04-02T12:33:25;10.27;;;1.90;;
41480;SDS011;27217;51.220;5.308;2023-04-02T12:36:28;9.00;;;2.10;;
41480;SDS011;27217;51.220;5.308;2023-04-02T12:39:39;5.50;;;1.75;;
41480;SDS011;27217;51.220;5.308;2023-04-02T12:42:45;3.88;;;1.90;;
41480;SDS011;27217;51.220;5.308;2023-04-02T12:45:51;3.88;;;2.08;;
41480;SDS011;27217;51.220;5.308;2023-04-02T12:49:06;5.30;;;1.63;;
41480;SDS011;27217;51.220;5.308;2023-04-02T12:51:50;5.43;;;1.85;;
41480;SDS011;27217;51.220;5.308;2023-04-02T12:54:57;9.18;;;2.45;;
41480;SDS011;27217;51.220;5.308;2023-04-02T12:58:02;5.65;;;1.80;;
41480;SDS011;27217;51.220;5.308;2023-04-02T13:01:18;6.50;;;2.70;;
41480;SDS011;27217;51.220;5.308;2023-04-02T13:04:23;5.38;;;2.30;;
41480;SDS011;27217;51.220;5.308;2023-04-02T13:07:35;7.40;;;2.40;;
41480;SDS011;27217;51.220;5.308;2023-04-02T13:10:41;2.88;;;1.58;;
41480;SDS011;27217;51.220;5.308;2023-04-02T13:13:46;5.22;;;2.35;;
41480;SDS011;27217;51.220;5.308;2023-04-02T13:16:52;9.02;;;2.40;;
41480;SDS011;27217;51.220;5.308;2023-04-02T13:20:23;6.15;;;3.08;;
41480;SDS011;27217;51.220;5.308;2023-04-02T13:22:58;4.78;;;1.60;;
41480;SDS011;27217;51.220;5.308;2023-04-02T13:26:25;2.22;;;1.58;;
41480;SDS011;27217;51.220;5.308;2023-04-02T13:29:26;7.03;;;1.98;;
41480;SDS011;27217;51.220;5.308;2023-04-02T13:32:30;3.20;;;1.50;;
41480;SDS011;27217;51.220;5.308;2023-04-02T13:35:36;4.90;;;2.22;;
41480;SDS011;27217;51.220;5.308;2023-04-02T13:38:42;3.72;;;2.00;;
41480;SDS011;27217;51.220;5.308;2023-04-02T13:41:53;4.82;;;2.15;;
41480;SDS011;27217;51.220;5.308;2023-04-02T13:44:53;6.65;;;2.95;;
41480;SDS011;27217;51.220;5.308;2023-04-02T13:48:12;4.30;;;1.95;;
41480;SDS011;27217;51.220;5.308;2023-04-02T13:51:16;1.80;;;1.58;;
41480;SDS011;27217;51.220;5.308;2023-04-02T13:56:51;9.20;;;1.58;;
41480;SDS011;27217;51.220;5.308;2023-04-02T13:59:58;6.43;;;1.73;;
41480;SDS011;27217;51.220;5.308;2023-04-02T14:03:08;5.63;;;2.13;;
41480;SDS011;27217;51.220;5.308;2023-04-02T14:06:16;3.53;;;1.67;;
41480;SDS011;27217;51.220;5.308;2023-04-02T14:26:20;5.07;;;1.60;;
41480;SDS011;27217;51.220;5.308;2023-04-02T14:38:16;3.20;;;1.65;;
41480;SDS011;27217;51.220;5.308;2023-04-02T14:41:23;2.50;;;1.60;;
41480;SDS011;27217;51.220;5.308;2023-04-02T14:44:31;2.00;;;1.42;;
41480;SDS011;27217;51.220;5.308;2023-04-02T14:47:40;3.47;;;1.60;;
41480;SDS011;27217;51.220;5.308;2023-04-02T14:50:46;2.40;;;1.60;;
41480;SDS011;27217;51.220;5.308;2023-04-02T14:54:00;3.88;;;1.67;;
41480;SDS011;27217;51.220;5.308;2023-04-02T14:57:23;5.22;;;1.40;;
41480;SDS011;27217;51.220;5.308;2023-04-02T15:00:30;7.05;;;2.33;;
41480;SDS011;27217;51.220;5.308;2023-04-02T15:03:37;3.15;;;1.25;;
41480;SDS011;27217;51.220;5.308;2023-04-02T15:06:46;2.60;;;1.33;;
41480;SDS011;27217;51.220;5.308;2023-04-02T15:09:53;2.15;;;1.48;;
41480;SDS011;27217;51.220;5.308;2023-04-02T15:12:36;2.65;;;1.50;;
41480;SDS011;27217;51.220;5.308;2023-04-02T15:15:53;4.00;;;1.58;;
41480;SDS011;27217;51.220;5.308;2023-04-02T15:19:00;2.03;;;1.25;;
41480;SDS011;27217;51.220;5.308;2023-04-02T15:27:59;3.92;;;1.80;;
41480;SDS011;27217;51.220;5.308;2023-04-02T15:30:45;5.80;;;1.98;;
41480;SDS011;27217;51.220;5.308;2023-04-02T15:36:36;4.07;;;1.63;;
41480;SDS011;27217;51.220;5.308;2023-04-02T15:42:24;3.20;;;1.70;;
41480;SDS011;27217;51.220;5.308;2023-04-02T15:51:44;5.57;;;1.70;;
41480;SDS011;27217;51.220;5.308;2023-04-02T15:56:33;4.35;;;1.90;;
41480;SDS011;27217;51.220;5.308;2023-04-02T15:59:50;5.95;;;1.83;;
41480;SDS011;27217;51.220;5.308;2023-04-02T16:10:56;2.03;;;1.70;;
41480;SDS011;27217;51.220;5.308;2023-04-02T16:14:14;6.15;;;1.85;;
41480;SDS011;27217;51.220;5.308;2023-04-02T16:17:21;6.72;;;1.75;;
41480;SDS011;27217;51.220;5.308;2023-04-02T16:20:25;3.20;;;1.83;;
41480;SDS011;27217;51.220;5.308;2023-04-02T16:23:33;3.90;;;1.60;;
41480;SDS011;27217;51.220;5.308;2023-04-02T16:38:32;2.08;;;1.40;;
41480;SDS011;27217;51.220;5.308;2023-04-02T16:47:59;6.45;;;1.65;;
41480;SDS011;27217;51.220;5.308;2023-04-02T16:51:18;2.55;;;1.50;;
41480;SDS011;27217;51.220;5.308;2023-04-02T17:02:43;4.22;;;1.65;;
41480;SDS011;27217;51.220;5.308;2023-04-02T17:08:24;7.55;;;2.05;;
41480;SDS011;27217;51.220;5.308;2023-04-02T17:11:35;6.70;;;2.13;;
41480;SDS011;27217;51.220;5.308;2023-04-02T17:14:39;4.03;;;2.03;;
41480;SDS011;27217;51.220;5.308;2023-04-02T17:17:43;2.97;;;1.90;;
41480;SDS011;27217;51.220;5.308;2023-04-02T17:20:59;4.97;;;2.00;;
41480;SDS011;27217;51.220;5.308;2023-04-02T17:24:03;3.70;;;1.65;;
41480;SDS011;27217;51.220;5.308;2023-04-02T17:27:17;6.72;;;2.35;;
41480;SDS011;27217;51.220;5.308;2023-04-02T17:30:17;3.55;;;2.28;;
41480;SDS011;27217;51.220;5.308;2023-04-02T17:33:22;3.70;;;1.90;;
41480;SDS011;27217;51.220;5.308;2023-04-02T17:39:22;7.18;;;2.30;;
41480;SDS011;27217;51.220;5.308;2023-04-02T17:48:06;6.07;;;2.35;;
41480;SDS011;27217;51.220;5.308;2023-04-02T17:59:51;4.72;;;1.58;;
41480;SDS011;27217;51.220;5.308;2023-04-02T18:08:45;6.72;;;2.10;;
41480;SDS011;27217;51.220;5.308;2023-04-02T18:11:53;3.08;;;1.92;;
41480;SDS011;27217;51.220;5.308;2023-04-02T18:15:23;4.47;;;2.13;;
41480;SDS011;27217;51.220;5.308;2023-04-02T18:22:09;6.00;;;3.17;;
41480;SDS011;27217;51.220;5.308;2023-04-02T18:26:36;6.30;;;2.50;;
41480;SDS011;27217;51.220;5.308;2023-04-02T18:36:13;4.32;;;2.33;;
41480;SDS011;27217;51.220;5.308;2023-04-02T18:39:30;4.82;;;2.15;;
41480;SDS011;27217;51.220;5.308;2023-04-02T18:45:08;5.30;;;2.15;;
41480;SDS011;27217;51.220;5.308;2023-04-02T18:50:55;13.15;;;5.00;;
41480;SDS011;27217;51.220;5.308;2023-04-02T18:54:24;11.88;;;6.03;;
41480;SDS011;27217;51.220;5.308;2023-04-02T18:57:34;10.23;;;5.47;;
41480;SDS011;27217;51.220;5.308;2023-04-02T19:00:39;5.93;;;4.13;;
41480;SDS011;27217;51.220;5.308;2023-04-02T19:03:48;6.05;;;2.70;;
41480;SDS011;27217;51.220;5.308;2023-04-02T19:06:50;6.03;;;3.08;;
41480;SDS011;27217;51.220;5.308;2023-04-02T19:09:55;4.85;;;2.90;;
41480;SDS011;27217;51.220;5.308;2023-04-02T19:12:43;7.70;;;2.88;;
41480;SDS011;27217;51.220;5.308;2023-04-02T19:19:09;6.68;;;2.92;;
41480;SDS011;27217;51.220;5.308;2023-04-02T19:26:51;7.05;;;2.65;;
41480;SDS011;27217;51.220;5.308;2023-04-02T19:30:37;8.55;;;3.22;;
41480;SDS011;27217;51.220;5.308;2023-04-02T19:36:45;7.63;;;4.05;;
41480;SDS011;27217;51.220;5.308;2023-04-02T19:40:10;7.95;;;4.40;;
41480;SDS011;27217;51.220;5.308;2023-04-02T19:42:55;10.05;;;3.97;;
41480;SDS011;27217;51.220;5.308;2023-04-02T19:46:01;6.85;;;4.32;;
41480;SDS011;27217;51.220;5.308;2023-04-02T19:51:55;6.32;;;3.88;;
41480;SDS011;27217;51.220;5.308;2023-04-02T19:55:00;8.43;;;4.03;;
41480;SDS011;27217;51.220;5.308;2023-04-02T19:58:10;8.10;;;3.45;;
41480;SDS011;27217;51.220;5.308;2023-04-02T20:01:12;5.63;;;3.40;;
41480;SDS011;27217;51.220;5.308;2023-04-02T20:04:18;8.60;;;4.40;;
41480;SDS011;27217;51.220;5.308;2023-04-02T20:07:24;10.15;;;3.40;;
41480;SDS011;27217;51.220;5.308;2023-04-02T20:10:30;7.72;;;3.00;;
41480;SDS011;27217;51.220;5.308;2023-04-02T20:13:35;9.88;;;3.13;;
41480;SDS011;27217;51.220;5.308;2023-04-02T20:16:41;7.65;;;3.38;;
41480;SDS011;27217;51.220;5.308;2023-04-02T20:19:47;9.27;;;3.13;;
41480;SDS011;27217;51.220;5.308;2023-04-02T20:22:52;9.43;;;3.17;;
41480;SDS011;27217;51.220;5.308;2023-04-02T20:25:58;7.30;;;3.00;;
41480;SDS011;27217;51.220;5.308;2023-04-02T20:29:04;6.75;;;2.95;;
41480;SDS011;27217;51.220;5.308;2023-04-02T20:32:10;9.07;;;3.97;;
41480;SDS011;27217;51.220;5.308;2023-04-02T20:35:15;4.40;;;2.85;;
41480;SDS011;27217;51.220;5.308;2023-04-02T20:38:21;7.35;;;3.50;;
41480;SDS011;27217;51.220;5.308;2023-04-02T20:41:26;7.40;;;3.35;;
41480;SDS011;27217;51.220;5.308;2023-04-02T20:44:32;10.35;;;4.32;;
41480;SDS011;27217;51.220;5.308;2023-04-02T20:47:38;6.05;;;3.53;;
41480;SDS011;27217;51.220;5.308;2023-04-02T20:50:44;9.40;;;4.28;;
41480;SDS011;27217;51.220;5.308;2023-04-02T20:53:49;7.40;;;3.40;;
41480;SDS011;27217;51.220;5.308;2023-04-02T20:56:55;9.85;;;3.90;;
41480;SDS011;27217;51.220;5.308;2023-04-02T21:00:01;8.52;;;3.58;;
41480;SDS011;27217;51.220;5.308;2023-04-02T21:03:07;7.32;;;3.30;;
41480;SDS011;27217;51.220;5.308;2023-04-02T21:06:17;7.55;;;3.75;;
41480;SDS011;27217;51.220;5.308;2023-04-02T21:09:21;13.68;;;3.83;;
41480;SDS011;27217;51.220;5.308;2023-04-02T21:12:26;9.82;;;4.32;;
41480;SDS011;27217;51.220;5.308;2023-04-02T21:15:32;11.45;;;3.35;;
41480;SDS011;27217;51.220;5.308;2023-04-02T21:18:38;6.68;;;3.50;;
41480;SDS011;27217;51.220;5.308;2023-04-02T21:21:43;13.23;;;4.40;;
41480;SDS011;27217;51.220;5.308;2023-04-02T21:24:49;12.88;;;7.13;;
41480;SDS011;27217;51.220;5.308;2023-04-02T21:27:55;23.08;;;9.68;;
41480;SDS011;27217;51.220;5.308;2023-04-02T21:31:05;23.73;;;9.88;;
41480;SDS011;27217;51.220;5.308;2023-04-02T21:34:14;15.43;;;6.53;;
41480;SDS011;27217;51.220;5.308;2023-04-02T21:37:19;12.98;;;4.78;;
41480;SDS011;27217;51.220;5.308;2023-04-02T21:40:25;13.70;;;4.55;;
41480;SDS011;27217;51.220;5.308;2023-04-02T21:43:30;10.95;;;4.55;;
41480;SDS011;27217;51.220;5.308;2023-04-02T21:46:37;18.73;;;4.72;;
41480;SDS011;27217;51.220;5.308;2023-04-02T21:49:42;18.50;;;5.80;;
41480;SDS011;27217;51.220;5.308;2023-04-02T21:52:51;12.82;;;4.97;;
41480;SDS011;27217;51.220;5.308;2023-04-02T21:56:04;15.07;;;4.63;;
41480;SDS011;27217;51.220;5.308;2023-04-02T21:59:00;10.40;;;4.53;;
41480;SDS011;27217;51.220;5.308;2023-04-02T22:02:05;14.65;;;5.03;;
41480;SDS011;27217;51.220;5.308;2023-04-02T22:05:10;9.70;;;5.15;;
41480;SDS011;27217;51.220;5.308;2023-04-02T22:08:16;11.98;;;5.10;;
41480;SDS011;27217;51.220;5.308;2023-04-02T22:11:25;13.20;;;5.80;;
41480;SDS011;27217;51.220;5.308;2023-04-02T22:14:27;15.60;;;5.43;;
41480;SDS011;27217;51.220;5.308;2023-04-02T22:17:33;13.80;;;5.15;;
41480;SDS011;27217;51.220;5.308;2023-04-02T22:20:39;12.43;;;4.35;;
41480;SDS011;27217;51.220;5.308;2023-04-02T22:23:45;10.07;;;4.50;;
41480;SDS011;27217;51.220;5.308;2023-04-02T22:26:51;12.25;;;5.47;;
41480;SDS011;27217;51.220;5.308;2023-04-02T22:29:56;9.05;;;5.15;;
41480;SDS011;27217;51.220;5.308;2023-04-02T22:33:02;10.68;;;4.95;;
41480;SDS011;27217;51.220;5.308;2023-04-02T22:36:07;8.02;;;5.10;;
41480;SDS011;27217;51.220;5.308;2023-04-02T22:39:13;13.60;;;4.68;;
41480;SDS011;27217;51.220;5.308;2023-04-02T22:42:19;9.32;;;4.55;;
41480;SDS011;27217;51.220;5.308;2023-04-02T22:45:25;13.05;;;4.93;;
41480;SDS011;27217;51.220;5.308;2023-04-02T22:48:33;7.88;;;4.43;;
41480;SDS011;27217;51.220;5.308;2023-04-02T22:51:43;7.78;;;4.22;;
41480;SDS011;27217;51.220;5.308;2023-04-02T22:54:48;10.77;;;4.05;;